sensor_id;sensor_type;location;lat;lon;timestamp;P1;durP1;ratioP1;P2;durP2;ratioP2
19998;SDS011;10160;50.926;4.374;2022-11-02T00:04:01;5.93;;;1.37;;
19998;SDS011;10160;50.926;4.374;2022-11-02T00:06:27;4.57;;;1.13;;
19998;SDS011;10160;50.926;4.374;2022-11-02T00:08:52;8.93;;;1.40;;
19998;SDS011;10160;50.926;4.374;2022-11-02T00:11:18;4.07;;;1.10;;
19998;SDS011;10160;50.926;4.374;2022-11-02T00:13:43;8.23;;;1.47;;
19998;SDS011;10160;50.926;4.374;2022-11-02T00:16:10;7.17;;;1.23;;
19998;SDS011;10160;50.926;4.374;2022-11-02T00:18:39;8.93;;;1.40;;
19998;SDS011;10160;50.926;4.374;2022-11-02T00:21:06;9.00;;;1.60;;
19998;SDS011;10160;50.926;4.374;2022-11-02T00:23:32;8.40;;;1.40;;
19998;SDS011;10160;50.926;4.374;2022-11-02T00:25:58;6.33;;;1.43;;
19998;SDS011;10160;50.926;4.374;2022-11-02T00:28:26;8.87;;;1.23;;
19998;SDS011;10160;50.926;4.374;2022-11-02T00:30:52;7.10;;;1.73;;
19998;SDS011;10160;50.926;4.374;2022-11-02T00:33:18;5.67;;;1.33;;
19998;SDS011;10160;50.926;4.374;2022-11-02T00:35:44;9.23;;;1.80;;
19998;SDS011;10160;50.926;4.374;2022-11-02T00:38:10;8.23;;;1.57;;
19998;SDS011;10160;50.926;4.374;2022-11-02T00:40:36;12.23;;;1.90;;
19998;SDS011;10160;50.926;4.374;2022-11-02T00:43:01;8.10;;;1.90;;
19998;SDS011;10160;50.926;4.374;2022-11-02T00:45:27;13.30;;;1.87;;
19998;SDS011;10160;50.926;4.374;2022-11-02T00:47:53;9.17;;;2.47;;
19998;SDS011;10160;50.926;4.374;2022-11-02T00:50:18;13.77;;;2.10;;
19998;SDS011;10160;50.926;4.374;2022-11-02T00:52:44;14.37;;;1.77;;
19998;SDS011;10160;50.926;4.374;2022-11-02T00:55:10;7.07;;;1.47;;
19998;SDS011;10160;50.926;4.374;2022-11-02T00:57:37;6.00;;;1.27;;
19998;SDS011;10160;50.926;4.374;2022-11-02T01:00:04;4.87;;;1.00;;
19998;SDS011;10160;50.926;4.374;2022-11-02T01:02:31;14.03;;;2.17;;
19998;SDS011;10160;50.926;4.374;2022-11-02T01:04:57;13.60;;;2.23;;
19998;SDS011;10160;50.926;4.374;2022-11-02T01:07:23;5.47;;;1.60;;
19998;SDS011;10160;50.926;4.374;2022-11-02T01:09:49;10.50;;;1.50;;
19998;SDS011;10160;50.926;4.374;2022-11-02T01:12:14;10.97;;;1.73;;
19998;SDS011;10160;50.926;4.374;2022-11-02T01:14:40;12.87;;;2.40;;
19998;SDS011;10160;50.926;4.374;2022-11-02T01:17:06;14.53;;;2.30;;
19998;SDS011;10160;50.926;4.374;2022-11-02T01:19:31;7.50;;;1.63;;
19998;SDS011;10160;50.926;4.374;2022-11-02T01:21:57;11.23;;;2.10;;
19998;SDS011;10160;50.926;4.374;2022-11-02T01:24:22;7.03;;;1.73;;
19998;SDS011;10160;50.926;4.374;2022-11-02T01:26:49;12.67;;;2.33;;
19998;SDS011;10160;50.926;4.374;2022-11-02T01:29:15;11.30;;;2.10;;
19998;SDS011;10160;50.926;4.374;2022-11-02T01:31:42;15.57;;;1.70;;
19998;SDS011;10160;50.926;4.374;2022-11-02T01:34:07;22.07;;;2.10;;
19998;SDS011;10160;50.926;4.374;2022-11-02T01:36:35;12.63;;;2.23;;
19998;SDS011;10160;50.926;4.374;2022-11-02T01:39:00;15.00;;;2.27;;
19998;SDS011;10160;50.926;4.374;2022-11-02T01:41:26;9.73;;;1.53;;
19998;SDS011;10160;50.926;4.374;2022-11-02T01:43:53;7.20;;;1.80;;
19998;SDS011;10160;50.926;4.374;2022-11-02T01:46:26;7.90;;;1.47;;
19998;SDS011;10160;50.926;4.374;2022-11-02T01:49:06;8.73;;;1.40;;
19998;SDS011;10160;50.926;4.374;2022-11-02T01:51:36;9.20;;;1.20;;
19998;SDS011;10160;50.926;4.374;2022-11-02T01:54:07;7.50;;;1.70;;
19998;SDS011;10160;50.926;4.374;2022-11-02T01:56:37;10.30;;;2.00;;
19998;SDS011;10160;50.926;4.374;2022-11-02T01:59:05;10.07;;;1.97;;
19998;SDS011;10160;50.926;4.374;2022-11-02T02:01:37;10.63;;;2.87;;
19998;SDS011;10160;50.926;4.374;2022-11-02T02:04:02;10.37;;;1.80;;
19998;SDS011;10160;50.926;4.374;2022-11-02T02:06:29;9.67;;;1.60;;
19998;SDS011;10160;50.926;4.374;2022-11-02T02:08:55;13.30;;;1.60;;
19998;SDS011;10160;50.926;4.374;2022-11-02T02:14:02;12.03;;;2.03;;
19998;SDS011;10160;50.926;4.374;2022-11-02T02:16:35;11.67;;;2.40;;
19998;SDS011;10160;50.926;4.374;2022-11-02T02:30:26;10.13;;;2.80;;
19998;SDS011;10160;50.926;4.374;2022-11-02T02:33:00;9.47;;;1.80;;
19998;SDS011;10160;50.926;4.374;2022-11-02T02:35:34;13.83;;;2.07;;
19998;SDS011;10160;50.926;4.374;2022-11-02T02:38:14;11.63;;;2.00;;
19998;SDS011;10160;50.926;4.374;2022-11-02T02:40:51;13.83;;;1.73;;
19998;SDS011;10160;50.926;4.374;2022-11-02T02:43:49;14.43;;;2.50;;
19998;SDS011;10160;50.926;4.374;2022-11-02T02:46:16;11.33;;;2.27;;
19998;SDS011;10160;50.926;4.374;2022-11-02T02:48:46;15.17;;;2.10;;
19998;SDS011;10160;50.926;4.374;2022-11-02T02:51:21;15.73;;;1.70;;
19998;SDS011;10160;50.926;4.374;2022-11-02T02:54:02;10.50;;;2.13;;
19998;SDS011;10160;50.926;4.374;2022-11-02T02:56:34;17.00;;;2.53;;
19998;SDS011;10160;50.926;4.374;2022-11-02T02:59:12;12.23;;;2.20;;
19998;SDS011;10160;50.926;4.374;2022-11-02T03:01:42;11.30;;;1.83;;
19998;SDS011;10160;50.926;4.374;2022-11-02T03:04:10;13.07;;;2.20;;
19998;SDS011;10160;50.926;4.374;2022-11-02T03:06:37;16.60;;;2.30;;
19998;SDS011;10160;50.926;4.374;2022-11-02T03:09:22;12.23;;;3.07;;
19998;SDS011;10160;50.926;4.374;2022-11-02T03:17:31;11.47;;;1.80;;
19998;SDS011;10160;50.926;4.374;2022-11-02T03:20:29;12.57;;;2.03;;
19998;SDS011;10160;50.926;4.374;2022-11-02T03:23:15;9.23;;;1.63;;
19998;SDS011;10160;50.926;4.374;2022-11-02T03:36:38;13.93;;;2.40;;
19998;SDS011;10160;50.926;4.374;2022-11-02T03:39:33;16.73;;;2.60;;
19998;SDS011;10160;50.926;4.374;2022-11-02T03:42:12;13.00;;;1.97;;
19998;SDS011;10160;50.926;4.374;2022-11-02T03:44:43;8.10;;;1.80;;
19998;SDS011;10160;50.926;4.374;2022-11-02T03:47:11;15.40;;;2.33;;
19998;SDS011;10160;50.926;4.374;2022-11-02T03:49:40;10.77;;;2.53;;
19998;SDS011;10160;50.926;4.374;2022-11-02T03:52:09;7.80;;;2.30;;
19998;SDS011;10160;50.926;4.374;2022-11-02T03:54:50;15.77;;;2.10;;
19998;SDS011;10160;50.926;4.374;2022-11-02T03:57:31;14.83;;;3.53;;
19998;SDS011;10160;50.926;4.374;2022-11-02T04:00:07;15.60;;;2.43;;
19998;SDS011;10160;50.926;4.374;2022-11-02T04:02:33;15.30;;;2.80;;
19998;SDS011;10160;50.926;4.374;2022-11-02T04:05:01;12.23;;;2.33;;
19998;SDS011;10160;50.926;4.374;2022-11-02T04:07:27;9.00;;;2.13;;
19998;SDS011;10160;50.926;4.374;2022-11-02T04:10:17;18.63;;;2.23;;
19998;SDS011;10160;50.926;4.374;2022-11-02T04:12:43;16.47;;;2.43;;
19998;SDS011;10160;50.926;4.374;2022-11-02T04:15:27;15.87;;;2.00;;
19998;SDS011;10160;50.926;4.374;2022-11-02T04:17:52;14.50;;;1.87;;
19998;SDS011;10160;50.926;4.374;2022-11-02T04:20:36;9.63;;;1.83;;
19998;SDS011;10160;50.926;4.374;2022-11-02T04:23:02;21.23;;;2.67;;
19998;SDS011;10160;50.926;4.374;2022-11-02T04:25:51;11.27;;;1.80;;
19998;SDS011;10160;50.926;4.374;2022-11-02T04:28:17;15.67;;;2.13;;
19998;SDS011;10160;50.926;4.374;2022-11-02T04:30:43;10.27;;;2.00;;
19998;SDS011;10160;50.926;4.374;2022-11-02T04:33:08;18.53;;;2.70;;
19998;SDS011;10160;50.926;4.374;2022-11-02T04:35:52;16.80;;;1.90;;
19998;SDS011;10160;50.926;4.374;2022-11-02T04:38:18;14.70;;;2.00;;
19998;SDS011;10160;50.926;4.374;2022-11-02T04:41:02;15.33;;;2.50;;
19998;SDS011;10160;50.926;4.374;2022-11-02T04:43:46;8.10;;;1.37;;
19998;SDS011;10160;50.926;4.374;2022-11-02T04:46:12;14.13;;;2.17;;
19998;SDS011;10160;50.926;4.374;2022-11-02T04:48:37;12.73;;;2.03;;
19998;SDS011;10160;50.926;4.374;2022-11-02T04:51:03;14.30;;;2.60;;
19998;SDS011;10160;50.926;4.374;2022-11-02T04:53:28;19.17;;;3.10;;
19998;SDS011;10160;50.926;4.374;2022-11-02T04:55:54;11.90;;;1.93;;
19998;SDS011;10160;50.926;4.374;2022-11-02T04:58:20;16.53;;;2.60;;
19998;SDS011;10160;50.926;4.374;2022-11-02T05:00:45;11.67;;;1.47;;
19998;SDS011;10160;50.926;4.374;2022-11-02T05:03:11;11.70;;;2.53;;
19998;SDS011;10160;50.926;4.374;2022-11-02T05:05:36;18.07;;;2.90;;
19998;SDS011;10160;50.926;4.374;2022-11-02T05:08:02;11.60;;;2.60;;
19998;SDS011;10160;50.926;4.374;2022-11-02T05:10:28;11.87;;;2.30;;
19998;SDS011;10160;50.926;4.374;2022-11-02T05:12:57;14.00;;;2.47;;
19998;SDS011;10160;50.926;4.374;2022-11-02T05:15:23;12.50;;;1.97;;
19998;SDS011;10160;50.926;4.374;2022-11-02T05:17:49;13.30;;;2.20;;
19998;SDS011;10160;50.926;4.374;2022-11-02T05:20:15;12.27;;;2.00;;
19998;SDS011;10160;50.926;4.374;2022-11-02T05:22:41;11.40;;;2.37;;
19998;SDS011;10160;50.926;4.374;2022-11-02T05:25:10;16.13;;;2.00;;
19998;SDS011;10160;50.926;4.374;2022-11-02T05:27:36;13.57;;;2.10;;
19998;SDS011;10160;50.926;4.374;2022-11-02T05:30:03;10.57;;;1.87;;
19998;SDS011;10160;50.926;4.374;2022-11-02T05:32:30;14.40;;;2.20;;
19998;SDS011;10160;50.926;4.374;2022-11-02T05:34:55;16.00;;;2.67;;
19998;SDS011;10160;50.926;4.374;2022-11-02T05:37:21;10.73;;;2.20;;
19998;SDS011;10160;50.926;4.374;2022-11-02T05:39:47;14.23;;;2.30;;
19998;SDS011;10160;50.926;4.374;2022-11-02T05:42:13;14.07;;;2.90;;
19998;SDS011;10160;50.926;4.374;2022-11-02T05:44:38;15.57;;;2.40;;
19998;SDS011;10160;50.926;4.374;2022-11-02T05:47:04;7.23;;;1.93;;
19998;SDS011;10160;50.926;4.374;2022-11-02T05:49:30;13.17;;;2.27;;
19998;SDS011;10160;50.926;4.374;2022-11-02T05:51:55;14.23;;;2.20;;
19998;SDS011;10160;50.926;4.374;2022-11-02T05:54:21;13.20;;;2.23;;
19998;SDS011;10160;50.926;4.374;2022-11-02T05:56:47;12.70;;;1.97;;
19998;SDS011;10160;50.926;4.374;2022-11-02T05:59:12;9.70;;;2.23;;
19998;SDS011;10160;50.926;4.374;2022-11-02T06:01:38;16.00;;;2.77;;
19998;SDS011;10160;50.926;4.374;2022-11-02T06:04:04;12.60;;;2.57;;
19998;SDS011;10160;50.926;4.374;2022-11-02T06:06:30;17.53;;;2.83;;
19998;SDS011;10160;50.926;4.374;2022-11-02T06:08:55;15.40;;;2.57;;
19998;SDS011;10160;50.926;4.374;2022-11-02T06:11:21;17.90;;;3.20;;
19998;SDS011;10160;50.926;4.374;2022-11-02T06:13:48;12.40;;;2.00;;
19998;SDS011;10160;50.926;4.374;2022-11-02T06:16:15;15.50;;;2.37;;
19998;SDS011;10160;50.926;4.374;2022-11-02T06:18:41;15.03;;;2.30;;
19998;SDS011;10160;50.926;4.374;2022-11-02T06:21:06;20.00;;;3.37;;
19998;SDS011;10160;50.926;4.374;2022-11-02T06:23:33;13.43;;;2.00;;
19998;SDS011;10160;50.926;4.374;2022-11-02T06:25:59;19.90;;;3.10;;
19998;SDS011;10160;50.926;4.374;2022-11-02T06:28:25;17.33;;;3.50;;
19998;SDS011;10160;50.926;4.374;2022-11-02T06:30:51;17.87;;;2.90;;
19998;SDS011;10160;50.926;4.374;2022-11-02T06:33:17;19.77;;;2.70;;
19998;SDS011;10160;50.926;4.374;2022-11-02T06:35:44;11.13;;;2.23;;
19998;SDS011;10160;50.926;4.374;2022-11-02T06:38:12;16.67;;;2.73;;
19998;SDS011;10160;50.926;4.374;2022-11-02T06:40:37;10.20;;;2.23;;
19998;SDS011;10160;50.926;4.374;2022-11-02T06:43:03;26.00;;;2.87;;
19998;SDS011;10160;50.926;4.374;2022-11-02T06:45:29;10.50;;;1.87;;
19998;SDS011;10160;50.926;4.374;2022-11-02T06:47:55;11.47;;;2.63;;
19998;SDS011;10160;50.926;4.374;2022-11-02T06:50:20;20.87;;;2.53;;
19998;SDS011;10160;50.926;4.374;2022-11-02T06:52:48;17.10;;;3.00;;
19998;SDS011;10160;50.926;4.374;2022-11-02T06:55:14;15.00;;;2.70;;
19998;SDS011;10160;50.926;4.374;2022-11-02T06:57:40;17.03;;;2.90;;
19998;SDS011;10160;50.926;4.374;2022-11-02T07:00:08;16.57;;;2.47;;
19998;SDS011;10160;50.926;4.374;2022-11-02T07:02:36;19.90;;;3.03;;
19998;SDS011;10160;50.926;4.374;2022-11-02T07:05:05;26.83;;;4.53;;
19998;SDS011;10160;50.926;4.374;2022-11-02T07:07:31;20.60;;;2.67;;
19998;SDS011;10160;50.926;4.374;2022-11-02T07:09:57;14.53;;;2.40;;
19998;SDS011;10160;50.926;4.374;2022-11-02T07:12:22;22.30;;;3.33;;
19998;SDS011;10160;50.926;4.374;2022-11-02T07:14:48;22.90;;;3.53;;
19998;SDS011;10160;50.926;4.374;2022-11-02T07:17:14;16.17;;;3.23;;
19998;SDS011;10160;50.926;4.374;2022-11-02T07:19:39;22.07;;;4.03;;
19998;SDS011;10160;50.926;4.374;2022-11-02T07:22:05;22.17;;;3.50;;
19998;SDS011;10160;50.926;4.374;2022-11-02T07:24:30;20.33;;;2.70;;
19998;SDS011;10160;50.926;4.374;2022-11-02T07:26:56;18.17;;;2.93;;
19998;SDS011;10160;50.926;4.374;2022-11-02T07:29:22;23.60;;;3.70;;
19998;SDS011;10160;50.926;4.374;2022-11-02T07:31:47;18.30;;;2.93;;
19998;SDS011;10160;50.926;4.374;2022-11-02T07:34:13;14.23;;;2.40;;
19998;SDS011;10160;50.926;4.374;2022-11-02T07:36:39;18.03;;;3.07;;
19998;SDS011;10160;50.926;4.374;2022-11-02T07:39:05;15.77;;;3.20;;
19998;SDS011;10160;50.926;4.374;2022-11-02T07:41:31;23.73;;;3.20;;
19998;SDS011;10160;50.926;4.374;2022-11-02T07:43:58;22.20;;;3.97;;
19998;SDS011;10160;50.926;4.374;2022-11-02T07:46:23;16.30;;;2.97;;
19998;SDS011;10160;50.926;4.374;2022-11-02T07:48:49;19.07;;;2.90;;
19998;SDS011;10160;50.926;4.374;2022-11-02T07:51:15;19.13;;;3.83;;
19998;SDS011;10160;50.926;4.374;2022-11-02T07:53:40;13.87;;;3.13;;
19998;SDS011;10160;50.926;4.374;2022-11-02T07:56:06;20.77;;;3.00;;
19998;SDS011;10160;50.926;4.374;2022-11-02T07:58:32;21.03;;;3.20;;
19998;SDS011;10160;50.926;4.374;2022-11-02T08:00:57;16.63;;;3.27;;
19998;SDS011;10160;50.926;4.374;2022-11-02T08:03:25;23.87;;;3.43;;
19998;SDS011;10160;50.926;4.374;2022-11-02T08:05:51;17.67;;;3.73;;
19998;SDS011;10160;50.926;4.374;2022-11-02T08:08:18;25.70;;;3.13;;
19998;SDS011;10160;50.926;4.374;2022-11-02T08:10:45;21.30;;;3.10;;
19998;SDS011;10160;50.926;4.374;2022-11-02T08:13:13;19.77;;;3.83;;
19998;SDS011;10160;50.926;4.374;2022-11-02T08:15:41;26.13;;;2.90;;
19998;SDS011;10160;50.926;4.374;2022-11-02T08:18:08;20.97;;;2.97;;
19998;SDS011;10160;50.926;4.374;2022-11-02T08:20:41;24.07;;;2.97;;
19998;SDS011;10160;50.926;4.374;2022-11-02T08:23:07;25.73;;;3.30;;
19998;SDS011;10160;50.926;4.374;2022-11-02T08:25:35;16.00;;;2.90;;
19998;SDS011;10160;50.926;4.374;2022-11-02T08:28:01;26.53;;;3.00;;
19998;SDS011;10160;50.926;4.374;2022-11-02T08:30:28;28.93;;;3.77;;
19998;SDS011;10160;50.926;4.374;2022-11-02T08:32:54;24.57;;;3.50;;
19998;SDS011;10160;50.926;4.374;2022-11-02T08:35:26;21.63;;;3.77;;
19998;SDS011;10160;50.926;4.374;2022-11-02T08:37:53;21.63;;;3.37;;
19998;SDS011;10160;50.926;4.374;2022-11-02T08:40:19;20.53;;;3.37;;
19998;SDS011;10160;50.926;4.374;2022-11-02T08:42:45;16.07;;;2.47;;
19998;SDS011;10160;50.926;4.374;2022-11-02T08:45:10;18.40;;;2.90;;
19998;SDS011;10160;50.926;4.374;2022-11-02T08:47:39;13.33;;;2.37;;
19998;SDS011;10160;50.926;4.374;2022-11-02T08:50:09;17.60;;;2.77;;
19998;SDS011;10160;50.926;4.374;2022-11-02T08:52:36;18.13;;;3.13;;
19998;SDS011;10160;50.926;4.374;2022-11-02T08:55:02;10.20;;;2.60;;
19998;SDS011;10160;50.926;4.374;2022-11-02T08:57:29;16.30;;;2.90;;
19998;SDS011;10160;50.926;4.374;2022-11-02T08:59:54;15.63;;;3.47;;
19998;SDS011;10160;50.926;4.374;2022-11-02T09:02:20;15.17;;;2.60;;
19998;SDS011;10160;50.926;4.374;2022-11-02T09:04:46;20.37;;;3.30;;
19998;SDS011;10160;50.926;4.374;2022-11-02T09:07:11;16.27;;;3.30;;
19998;SDS011;10160;50.926;4.374;2022-11-02T09:09:40;14.90;;;2.20;;
19998;SDS011;10160;50.926;4.374;2022-11-02T09:12:06;16.90;;;3.60;;
19998;SDS011;10160;50.926;4.374;2022-11-02T09:14:31;22.77;;;3.83;;
19998;SDS011;10160;50.926;4.374;2022-11-02T09:16:57;26.27;;;3.10;;
19998;SDS011;10160;50.926;4.374;2022-11-02T09:19:23;17.00;;;2.97;;
19998;SDS011;10160;50.926;4.374;2022-11-02T09:21:48;20.37;;;3.30;;
19998;SDS011;10160;50.926;4.374;2022-11-02T09:24:15;19.00;;;3.30;;
19998;SDS011;10160;50.926;4.374;2022-11-02T09:26:40;20.77;;;3.40;;
19998;SDS011;10160;50.926;4.374;2022-11-02T09:29:06;15.03;;;2.63;;
19998;SDS011;10160;50.926;4.374;2022-11-02T09:31:32;16.80;;;3.30;;
19998;SDS011;10160;50.926;4.374;2022-11-02T09:33:57;15.40;;;2.83;;
19998;SDS011;10160;50.926;4.374;2022-11-02T09:36:23;18.90;;;2.90;;
19998;SDS011;10160;50.926;4.374;2022-11-02T09:38:49;15.73;;;2.87;;
19998;SDS011;10160;50.926;4.374;2022-11-02T09:43:56;19.43;;;3.53;;
19998;SDS011;10160;50.926;4.374;2022-11-02T09:46:34;21.63;;;3.10;;
19998;SDS011;10160;50.926;4.374;2022-11-02T09:49:03;18.23;;;3.70;;
19998;SDS011;10160;50.926;4.374;2022-11-02T09:54:15;22.67;;;3.67;;
19998;SDS011;10160;50.926;4.374;2022-11-02T09:57:19;14.40;;;2.60;;
19998;SDS011;10160;50.926;4.374;2022-11-02T09:59:52;17.90;;;2.72;;
19998;SDS011;10160;50.926;4.374;2022-11-02T10:02:35;17.25;;;2.83;;
19998;SDS011;10160;50.926;4.374;2022-11-02T10:08:03;12.38;;;3.03;;
19998;SDS011;10160;50.926;4.374;2022-11-02T10:10:48;7.60;;;1.85;;
19998;SDS011;10160;50.926;4.374;2022-11-02T10:16:12;14.98;;;2.33;;
19998;SDS011;10160;50.926;4.374;2022-11-02T10:18:54;15.35;;;2.58;;
19998;SDS011;10160;50.926;4.374;2022-11-02T10:21:22;19.05;;;2.42;;
19998;SDS011;10160;50.926;4.374;2022-11-02T10:23:55;11.30;;;1.88;;
19998;SDS011;10160;50.926;4.374;2022-11-02T10:26:26;13.75;;;2.58;;
19998;SDS011;10160;50.926;4.374;2022-11-02T10:29:10;20.98;;;2.83;;
19998;SDS011;10160;50.926;4.374;2022-11-02T10:31:59;15.93;;;2.50;;
19998;SDS011;10160;50.926;4.374;2022-11-02T10:34:26;15.50;;;2.83;;
19998;SDS011;10160;50.926;4.374;2022-11-02T10:36:57;13.27;;;2.13;;
19998;SDS011;10160;50.926;4.374;2022-11-02T10:44:53;21.95;;;2.78;;
19998;SDS011;10160;50.926;4.374;2022-11-02T10:47:56;14.07;;;2.38;;
19998;SDS011;10160;50.926;4.374;2022-11-02T10:50:45;18.58;;;3.25;;
19998;SDS011;10160;50.926;4.374;2022-11-02T10:53:13;22.13;;;3.42;;
19998;SDS011;10160;50.926;4.374;2022-11-02T10:55:51;18.63;;;3.00;;
19998;SDS011;10160;50.926;4.374;2022-11-02T10:58:31;15.93;;;2.63;;
19998;SDS011;10160;50.926;4.374;2022-11-02T11:01:08;20.42;;;4.05;;
19998;SDS011;10160;50.926;4.374;2022-11-02T11:03:54;16.38;;;2.97;;
19998;SDS011;10160;50.926;4.374;2022-11-02T11:06:38;19.95;;;3.17;;
19998;SDS011;10160;50.926;4.374;2022-11-02T11:09:14;18.05;;;2.70;;
19998;SDS011;10160;50.926;4.374;2022-11-02T11:11:53;17.58;;;3.13;;
19998;SDS011;10160;50.926;4.374;2022-11-02T11:14:25;16.75;;;2.75;;
19998;SDS011;10160;50.926;4.374;2022-11-02T11:16:54;21.10;;;3.38;;
19998;SDS011;10160;50.926;4.374;2022-11-02T11:21:50;16.88;;;3.30;;
19998;SDS011;10160;50.926;4.374;2022-11-02T11:24:29;14.90;;;2.33;;
19998;SDS011;10160;50.926;4.374;2022-11-02T11:27:01;20.63;;;3.13;;
19998;SDS011;10160;50.926;4.374;2022-11-02T11:29:33;15.90;;;3.00;;
19998;SDS011;10160;50.926;4.374;2022-11-02T11:32:02;18.40;;;2.83;;
19998;SDS011;10160;50.926;4.374;2022-11-02T11:34:29;17.23;;;3.35;;
19998;SDS011;10160;50.926;4.374;2022-11-02T11:37:09;15.95;;;2.33;;
19998;SDS011;10160;50.926;4.374;2022-11-02T11:39:38;15.38;;;3.33;;
19998;SDS011;10160;50.926;4.374;2022-11-02T11:42:17;14.63;;;2.85;;
19998;SDS011;10160;50.926;4.374;2022-11-02T11:44:46;14.00;;;2.95;;
19998;SDS011;10160;50.926;4.374;2022-11-02T11:47:27;13.85;;;2.28;;
19998;SDS011;10160;50.926;4.374;2022-11-02T11:49:56;16.77;;;3.30;;
19998;SDS011;10160;50.926;4.374;2022-11-02T11:52:32;20.00;;;2.33;;
19998;SDS011;10160;50.926;4.374;2022-11-02T11:54:59;14.00;;;2.63;;
19998;SDS011;10160;50.926;4.374;2022-11-02T11:57:30;16.60;;;2.63;;
19998;SDS011;10160;50.926;4.374;2022-11-02T11:59:58;13.85;;;2.45;;
19998;SDS011;10160;50.926;4.374;2022-11-02T12:02:47;12.40;;;2.20;;
19998;SDS011;10160;50.926;4.374;2022-11-02T12:05:37;17.10;;;2.85;;
19998;SDS011;10160;50.926;4.374;2022-11-02T12:13:35;13.10;;;2.83;;
19998;SDS011;10160;50.926;4.374;2022-11-02T12:22:11;17.50;;;2.42;;
19998;SDS011;10160;50.926;4.374;2022-11-02T12:27:38;11.77;;;1.80;;
19998;SDS011;10160;50.926;4.374;2022-11-02T12:35:36;17.92;;;2.53;;
19998;SDS011;10160;50.926;4.374;2022-11-02T12:40:58;18.60;;;2.85;;
19998;SDS011;10160;50.926;4.374;2022-11-02T12:43:37;16.00;;;2.58;;
19998;SDS011;10160;50.926;4.374;2022-11-02T12:51:35;15.50;;;2.20;;
19998;SDS011;10160;50.926;4.374;2022-11-02T12:54:10;11.63;;;1.80;;
19998;SDS011;10160;50.926;4.374;2022-11-02T12:56:47;13.02;;;2.17;;
19998;SDS011;10160;50.926;4.374;2022-11-02T12:59:21;7.35;;;1.58;;
19998;SDS011;10160;50.926;4.374;2022-11-02T13:01:56;11.25;;;1.55;;
19998;SDS011;10160;50.926;4.374;2022-11-02T13:04:55;13.07;;;2.38;;
19998;SDS011;10160;50.926;4.374;2022-11-02T13:07:55;8.27;;;1.55;;
19998;SDS011;10160;50.926;4.374;2022-11-02T13:10:43;9.25;;;1.63;;
19998;SDS011;10160;50.926;4.374;2022-11-02T13:13:15;16.38;;;2.25;;
19998;SDS011;10160;50.926;4.374;2022-11-02T13:15:44;9.40;;;1.83;;
19998;SDS011;10160;50.926;4.374;2022-11-02T13:18:23;20.08;;;1.90;;
19998;SDS011;10160;50.926;4.374;2022-11-02T13:20:57;11.35;;;2.08;;
19998;SDS011;10160;50.926;4.374;2022-11-02T13:26:32;14.48;;;2.55;;
19998;SDS011;10160;50.926;4.374;2022-11-02T13:31:43;12.05;;;2.05;;
19998;SDS011;10160;50.926;4.374;2022-11-02T13:34:27;15.27;;;2.10;;
19998;SDS011;10160;50.926;4.374;2022-11-02T13:37:13;12.18;;;2.10;;
19998;SDS011;10160;50.926;4.374;2022-11-02T13:39:45;10.35;;;1.60;;
19998;SDS011;10160;50.926;4.374;2022-11-02T13:50:12;14.10;;;2.30;;
19998;SDS011;10160;50.926;4.374;2022-11-02T13:52:43;17.90;;;1.83;;
19998;SDS011;10160;50.926;4.374;2022-11-02T13:55:17;11.80;;;2.17;;
19998;SDS011;10160;50.926;4.374;2022-11-02T13:57:46;8.68;;;1.60;;
19998;SDS011;10160;50.926;4.374;2022-11-02T14:00:25;13.10;;;2.20;;
19998;SDS011;10160;50.926;4.374;2022-11-02T14:05:58;7.90;;;1.27;;
19998;SDS011;10160;50.926;4.374;2022-11-02T14:22:13;13.52;;;2.17;;
19998;SDS011;10160;50.926;4.374;2022-11-02T14:40:17;16.92;;;3.22;;
19998;SDS011;10160;50.926;4.374;2022-11-02T14:45:44;11.52;;;1.98;;
19998;SDS011;10160;50.926;4.374;2022-11-02T14:48:22;10.82;;;2.10;;
19998;SDS011;10160;50.926;4.374;2022-11-02T14:51:00;18.00;;;2.85;;
19998;SDS011;10160;50.926;4.374;2022-11-02T14:53:33;12.73;;;2.17;;
19998;SDS011;10160;50.926;4.374;2022-11-02T14:56:01;12.43;;;2.17;;
19998;SDS011;10160;50.926;4.374;2022-11-02T14:58:40;16.75;;;2.47;;
19998;SDS011;10160;50.926;4.374;2022-11-02T15:01:15;12.38;;;2.30;;
19998;SDS011;10160;50.926;4.374;2022-11-02T15:03:42;12.82;;;1.60;;
19998;SDS011;10160;50.926;4.374;2022-11-02T15:09:00;11.60;;;1.73;;
19998;SDS011;10160;50.926;4.374;2022-11-02T15:16:55;8.10;;;1.30;;
19998;SDS011;10160;50.926;4.374;2022-11-02T15:24:59;12.35;;;2.17;;
19998;SDS011;10160;50.926;4.374;2022-11-02T15:27:46;13.02;;;2.47;;
19998;SDS011;10160;50.926;4.374;2022-11-02T15:30:16;11.73;;;2.10;;
19998;SDS011;10160;50.926;4.374;2022-11-02T15:32:46;13.23;;;1.60;;
19998;SDS011;10160;50.926;4.374;2022-11-02T15:35:32;9.57;;;1.53;;
19998;SDS011;10160;50.926;4.374;2022-11-02T15:38:00;12.48;;;1.77;;
19998;SDS011;10160;50.926;4.374;2022-11-02T15:40:29;9.23;;;1.83;;
19998;SDS011;10160;50.926;4.374;2022-11-02T15:45:49;15.70;;;2.03;;
19998;SDS011;10160;50.926;4.374;2022-11-02T15:48:29;16.13;;;2.43;;
19998;SDS011;10160;50.926;4.374;2022-11-02T15:59:38;12.17;;;3.13;;
19998;SDS011;10160;50.926;4.374;2022-11-02T16:02:31;9.87;;;2.33;;
19998;SDS011;10160;50.926;4.374;2022-11-02T16:05:01;12.60;;;2.27;;
19998;SDS011;10160;50.926;4.374;2022-11-02T16:07:30;9.93;;;1.70;;
19998;SDS011;10160;50.926;4.374;2022-11-02T16:13:11;13.73;;;2.23;;
19998;SDS011;10160;50.926;4.374;2022-11-02T16:15:40;9.53;;;2.13;;
19998;SDS011;10160;50.926;4.374;2022-11-02T16:18:23;9.80;;;2.10;;
19998;SDS011;10160;50.926;4.374;2022-11-02T16:20:52;12.93;;;1.90;;
19998;SDS011;10160;50.926;4.374;2022-11-02T16:23:27;13.00;;;1.80;;
19998;SDS011;10160;50.926;4.374;2022-11-02T16:26:04;17.20;;;2.13;;
19998;SDS011;10160;50.926;4.374;2022-11-02T16:28:35;17.70;;;2.13;;
19998;SDS011;10160;50.926;4.374;2022-11-02T16:36:10;9.97;;;2.37;;
19998;SDS011;10160;50.926;4.374;2022-11-02T16:39:27;14.23;;;2.50;;
19998;SDS011;10160;50.926;4.374;2022-11-02T16:41:33;9.37;;;2.03;;
19998;SDS011;10160;50.926;4.374;2022-11-02T16:44:02;12.30;;;2.57;;
19998;SDS011;10160;50.926;4.374;2022-11-02T16:46:40;14.83;;;2.87;;
19998;SDS011;10160;50.926;4.374;2022-11-02T16:49:18;11.97;;;2.37;;
19998;SDS011;10160;50.926;4.374;2022-11-02T16:51:46;17.33;;;2.80;;
19998;SDS011;10160;50.926;4.374;2022-11-02T16:54:18;16.53;;;2.83;;
19998;SDS011;10160;50.926;4.374;2022-11-02T16:57:04;10.60;;;2.00;;
19998;SDS011;10160;50.926;4.374;2022-11-02T16:59:30;24.10;;;3.10;;
19998;SDS011;10160;50.926;4.374;2022-11-02T17:01:58;15.87;;;1.80;;
19998;SDS011;10160;50.926;4.374;2022-11-02T17:04:26;16.90;;;3.00;;
19998;SDS011;10160;50.926;4.374;2022-11-02T17:06:56;16.93;;;2.80;;
19998;SDS011;10160;50.926;4.374;2022-11-02T17:09:32;18.13;;;2.60;;
19998;SDS011;10160;50.926;4.374;2022-11-02T17:11:59;15.80;;;2.40;;
19998;SDS011;10160;50.926;4.374;2022-11-02T17:14:39;12.97;;;2.33;;
19998;SDS011;10160;50.926;4.374;2022-11-02T17:17:26;10.17;;;2.27;;
19998;SDS011;10160;50.926;4.374;2022-11-02T17:23:02;11.83;;;2.73;;
19998;SDS011;10160;50.926;4.374;2022-11-02T17:25:31;18.40;;;2.93;;
19998;SDS011;10160;50.926;4.374;2022-11-02T17:27:59;12.63;;;3.13;;
19998;SDS011;10160;50.926;4.374;2022-11-02T17:32:59;13.77;;;2.83;;
19998;SDS011;10160;50.926;4.374;2022-11-02T17:35:32;12.87;;;2.30;;
19998;SDS011;10160;50.926;4.374;2022-11-02T17:37:58;12.67;;;2.70;;
19998;SDS011;10160;50.926;4.374;2022-11-02T17:40:25;14.43;;;3.50;;
19998;SDS011;10160;50.926;4.374;2022-11-02T17:42:50;14.07;;;2.80;;
19998;SDS011;10160;50.926;4.374;2022-11-02T17:45:27;14.83;;;2.93;;